createdAt,value
2023-01-07T00:03:21.130Z,4.38
2023-01-07T00:08:24.662Z,4.53
2023-01-07T00:13:28.184Z,4.95
2023-01-07T00:18:34.312Z,3.90
2023-01-07T00:23:39.748Z,4.45
2023-01-07T00:28:46.786Z,5.05
2023-01-07T00:34:07.034Z,4.82
2023-01-07T00:39:15.119Z,3.95
2023-01-07T00:44:18.613Z,4.25
2023-01-07T00:49:24.501Z,3.10
2023-01-07T00:54:28.081Z,3.30
2023-01-07T00:59:31.502Z,3.08
2023-01-07T01:04:36.496Z,3.05
2023-01-07T01:09:39.958Z,3.10
2023-01-07T01:14:43.421Z,3.40
2023-01-07T01:19:48.457Z,3.13
2023-01-07T01:24:53.259Z,3.25
2023-01-07T01:29:56.673Z,3.30
2023-01-07T01:35:01.432Z,3.72
2023-01-07T01:40:05.517Z,3.47
2023-01-07T01:45:12.524Z,3.42
2023-01-07T01:50:22.329Z,4.13
2023-01-07T01:55:34.704Z,3.63
2023-01-07T02:00:38.688Z,4.22
2023-01-07T02:05:44.519Z,4.07
2023-01-07T02:10:48.239Z,3.95
2023-01-07T02:16:00.542Z,4.32
2023-01-07T02:21:26.297Z,4.50
2023-01-07T02:26:59.404Z,5.63
2023-01-07T02:32:26.638Z,5.15
2023-01-07T02:37:41.011Z,5.47
2023-01-07T02:42:55.263Z,4.85
2023-01-07T02:48:03.327Z,4.93
2023-01-07T02:53:09.330Z,6.50
2023-01-07T02:58:43.553Z,7.20
2023-01-07T03:04:05.553Z,6.50
2023-01-07T03:09:16.540Z,5.63
2023-01-07T03:14:23.974Z,4.72
2023-01-07T03:19:32.678Z,5.53
2023-01-07T03:24:37.020Z,4.95
2023-01-07T03:29:40.700Z,4.03
2023-01-07T03:34:46.257Z,4.65
2023-01-07T03:39:51.403Z,4.10
2023-01-07T03:44:55.992Z,4.15
2023-01-07T03:50:01.024Z,3.88
2023-01-07T03:55:05.757Z,4.00
2023-01-07T04:00:12.328Z,4.25
2023-01-07T04:05:17.240Z,3.78
2023-01-07T04:10:20.983Z,3.90
2023-01-07T04:15:24.529Z,5.03
2023-01-07T04:20:29.515Z,4.07
2023-01-07T04:25:35.299Z,4.90
2023-01-07T04:30:39.056Z,5.15
2023-01-07T04:35:47.136Z,5.30
2023-01-07T04:40:50.945Z,4.75
2023-01-07T04:45:56.794Z,5.38
2023-01-07T04:51:01.877Z,5.45
2023-01-07T04:56:06.402Z,5.70
2023-01-07T05:01:11.361Z,5.32
2023-01-07T05:06:16.639Z,5.15
2023-01-07T05:11:22.065Z,6.03
2023-01-07T05:16:26.790Z,6.75
2023-01-07T05:21:32.004Z,6.78
2023-01-07T05:26:36.145Z,6.95
2023-01-07T05:31:41.045Z,6.72
2023-01-07T05:36:46.232Z,7.88
2023-01-07T05:41:49.835Z,6.90
2023-01-07T05:46:53.514Z,6.65
2023-01-07T05:51:58.564Z,6.28
2023-01-07T05:57:02.251Z,5.88
2023-01-07T06:02:06.358Z,6.20
2023-01-07T06:07:12.333Z,7.40
2023-01-07T06:12:16.790Z,7.22
2023-01-07T06:17:20.828Z,7.07
2023-01-07T06:22:25.889Z,6.80
2023-01-07T06:27:29.656Z,7.85
2023-01-07T06:32:33.479Z,7.95
2023-01-07T06:37:39.369Z,7.32
2023-01-07T06:42:43.036Z,7.28
2023-01-07T06:47:48.479Z,7.25
2023-01-07T06:52:53.935Z,7.60
2023-01-07T06:57:58.246Z,6.68
2023-01-07T07:03:01.807Z,7.07
2023-01-07T07:08:07.234Z,6.50
2023-01-07T07:13:12.067Z,6.68
2023-01-07T07:18:15.768Z,7.03
2023-01-07T07:23:20.978Z,8.02
2023-01-07T07:28:25.751Z,6.55
2023-01-07T07:33:29.900Z,6.00
2023-01-07T07:38:35.053Z,8.50
2023-01-07T07:43:39.386Z,7.45
2023-01-07T07:48:43.009Z,8.02
2023-01-07T07:53:48.166Z,7.40
2023-01-07T07:58:51.687Z,7.43
2023-01-07T08:03:55.399Z,6.95
2023-01-07T08:09:00.802Z,6.38
2023-01-07T08:14:04.413Z,6.72
2023-01-07T08:19:07.890Z,8.80
2023-01-07T08:24:13.193Z,9.38
2023-01-07T08:29:16.906Z,8.55
2023-01-07T08:34:20.667Z,8.60
2023-01-07T08:39:25.748Z,7.85
2023-01-07T08:44:29.217Z,7.05
2023-01-07T08:49:33.198Z,6.97
2023-01-07T08:54:38.269Z,7.18
2023-01-07T08:59:43.498Z,6.85
2023-01-07T09:04:47.448Z,7.55
2023-01-07T09:09:52.551Z,8.35
2023-01-07T09:14:56.334Z,8.00
2023-01-07T09:20:03.524Z,7.78
2023-01-07T09:25:09.285Z,8.02
2023-01-07T09:30:13.966Z,8.23
2023-01-07T09:35:17.814Z,7.55
2023-01-07T09:40:27.905Z,7.93
2023-01-07T09:45:35.710Z,7.35
2023-01-07T09:50:51.090Z,6.30
2023-01-07T09:56:11.156Z,9.32
2023-01-07T10:01:24.420Z,6.78
2023-01-07T10:06:43.438Z,6.45
2023-01-07T10:12:07.262Z,6.32
2023-01-07T10:17:22.001Z,6.67
2023-01-07T10:22:32.928Z,5.85
2023-01-07T10:27:42.521Z,7.35
2023-01-07T10:32:47.965Z,6.45
2023-01-07T10:37:52.309Z,6.00
2023-01-07T10:43:02.443Z,6.50
2023-01-07T10:48:24.025Z,7.60
2023-01-07T10:53:35.879Z,9.20
2023-01-07T10:58:43.015Z,9.48
2023-01-07T11:03:50.308Z,7.85
2023-01-07T11:08:54.991Z,6.88
2023-01-07T11:14:03.731Z,8.60
2023-01-07T11:19:09.726Z,6.72
2023-01-07T11:24:30.934Z,6.43
2023-01-07T11:29:39.785Z,6.22
2023-01-07T11:34:56.298Z,6.03
2023-01-07T11:40:00.916Z,5.30
2023-01-07T11:45:16.218Z,5.30
2023-01-07T11:50:26.117Z,7.55
2023-01-07T11:55:30.701Z,7.03
2023-01-07T12:00:35.555Z,5.88
2023-01-07T12:05:40.088Z,6.32
2023-01-07T12:10:44.344Z,6.40
2023-01-07T12:15:54.018Z,5.68
2023-01-07T12:21:25.998Z,5.97
2023-01-07T12:26:36.702Z,6.57
2023-01-07T12:31:52.675Z,5.95
2023-01-07T12:37:01.521Z,6.88
2023-01-07T12:42:10.516Z,6.57
2023-01-07T12:47:31.276Z,6.75
2023-01-07T12:52:44.436Z,6.27
2023-01-07T12:57:58.187Z,5.55
2023-01-07T13:03:11.060Z,5.85
2023-01-07T13:08:24.382Z,5.70
2023-01-07T13:13:33.943Z,5.47
2023-01-07T13:18:38.904Z,5.10
2023-01-07T13:24:07.697Z,4.82
2023-01-07T13:29:22.688Z,4.50
2023-01-07T13:34:40.423Z,4.20
2023-01-07T13:40:02.621Z,4.30
2023-01-07T13:45:12.347Z,4.80
2023-01-07T13:50:26.551Z,5.25
2023-01-07T13:55:41.977Z,5.30
2023-01-07T14:01:03.231Z,4.95
2023-01-07T14:06:44.094Z,5.63
2023-01-07T14:12:24.765Z,6.07
2023-01-07T14:17:35.158Z,7.38
2023-01-07T14:22:48.616Z,8.32
2023-01-07T14:28:08.608Z,7.65
2023-01-07T14:33:20.736Z,8.18
2023-01-07T14:39:07.176Z,9.03
2023-01-07T14:44:30.328Z,7.97
2023-01-07T14:50:03.231Z,8.00
2023-01-07T14:55:27.540Z,8.95
2023-01-07T15:01:09.046Z,9.40
2023-01-07T15:06:21.785Z,12.93
2023-01-07T15:11:44.923Z,12.50
2023-01-07T15:16:55.527Z,8.55
2023-01-07T15:22:08.160Z,9.75
2023-01-07T15:27:20.209Z,10.70
2023-01-07T15:32:36.177Z,13.77
2023-01-07T15:37:46.077Z,18.70
2023-01-07T15:42:52.511Z,16.23
2023-01-07T15:48:09.295Z,15.85
2023-01-07T15:53:20.755Z,16.80
2023-01-07T15:58:30.203Z,17.92
2023-01-07T16:03:39.609Z,20.95
2023-01-07T16:08:45.625Z,19.25
2023-01-07T16:13:58.023Z,19.52
2023-01-07T16:19:04.811Z,21.20
2023-01-07T16:24:08.666Z,22.00
2023-01-07T16:29:20.424Z,22.98
2023-01-07T16:34:57.228Z,27.50
2023-01-07T16:40:01.124Z,23.33
2023-01-07T16:45:21.396Z,17.98
2023-01-07T16:50:41.636Z,16.48
2023-01-07T16:55:50.333Z,18.55
2023-01-07T17:00:55.777Z,21.10
2023-01-07T17:06:04.535Z,21.42
2023-01-07T17:11:17.920Z,19.55
2023-01-07T17:16:34.333Z,19.15
2023-01-07T17:21:44.301Z,21.17
2023-01-07T17:26:47.783Z,24.27
2023-01-07T17:31:51.273Z,24.23
2023-01-07T17:36:56.088Z,26.30
2023-01-07T17:42:17.138Z,26.83
2023-01-07T17:47:22.331Z,24.45
2023-01-07T17:52:27.446Z,27.70
2023-01-07T17:57:30.887Z,29.05
2023-01-07T18:02:34.381Z,29.15
2023-01-07T18:07:39.345Z,28.77
2023-01-07T18:12:43.676Z,25.98
2023-01-07T18:17:47.802Z,24.50
2023-01-07T18:22:52.597Z,24.67
2023-01-07T18:27:56.599Z,24.10
2023-01-07T18:33:00.373Z,24.23
2023-01-07T18:38:05.324Z,24.55
2023-01-07T18:43:12.013Z,25.98
2023-01-07T18:48:20.243Z,25.05
2023-01-07T18:53:27.201Z,25.30
2023-01-07T18:58:30.904Z,26.40
2023-01-07T19:03:34.597Z,26.05
2023-01-07T19:08:40.002Z,29.25
2023-01-07T19:13:43.671Z,30.02
2023-01-07T19:18:47.165Z,30.05
2023-01-07T19:23:52.105Z,28.90
2023-01-07T19:28:55.587Z,29.60
2023-01-07T19:33:59.051Z,28.52
2023-01-07T19:39:03.816Z,28.80
2023-01-07T19:44:07.663Z,27.60
2023-01-07T19:49:13.448Z,28.05
2023-01-07T19:54:18.466Z,27.50
2023-01-07T19:59:22.107Z,26.77
2023-01-07T20:04:27.313Z,28.85
2023-01-07T20:09:32.884Z,30.65
2023-01-07T20:14:36.370Z,29.27
2023-01-07T20:19:39.819Z,29.48
2023-01-07T20:24:46.722Z,31.92
2023-01-07T20:29:50.182Z,35.60
2023-01-07T20:34:53.667Z,37.53
2023-01-07T20:39:58.519Z,34.45
2023-01-07T20:45:01.935Z,36.70
2023-01-07T20:50:06.033Z,35.15
2023-01-07T20:55:11.693Z,33.72
2023-01-07T21:00:17.944Z,33.35
2023-01-07T21:05:23.225Z,33.25
2023-01-07T21:10:28.106Z,31.42
2023-01-07T21:15:32.006Z,34.35
2023-01-07T21:20:35.739Z,34.10
2023-01-07T21:25:40.828Z,36.05
2023-01-07T21:30:44.581Z,37.95
2023-01-07T21:35:50.269Z,35.00
2023-01-07T21:40:55.164Z,35.10
2023-01-07T21:46:00.592Z,36.25
2023-01-07T21:51:05.864Z,34.03
2023-01-07T21:56:12.626Z,35.67
2023-01-07T22:01:17.173Z,34.38
2023-01-07T22:06:22.336Z,33.90
2023-01-07T22:11:27.821Z,32.50
2023-01-07T22:16:33.036Z,33.08
2023-01-07T22:21:37.150Z,32.92
2023-01-07T22:26:43.011Z,34.50
2023-01-07T22:31:49.712Z,34.58
2023-01-07T22:36:58.761Z,34.10
2023-01-07T22:42:07.048Z,32.13
2023-01-07T22:47:14.236Z,32.60
2023-01-07T22:52:19.402Z,33.38
2023-01-07T22:57:24.636Z,30.50
2023-01-07T23:02:28.942Z,30.30
2023-01-07T23:07:32.468Z,30.98
2023-01-07T23:12:37.546Z,28.80
2023-01-07T23:17:41.705Z,25.60
2023-01-07T23:22:45.151Z,25.25
2023-01-07T23:27:51.190Z,23.90
2023-01-07T23:32:54.666Z,24.98
2023-01-07T23:37:58.379Z,24.73
2023-01-07T23:43:04.348Z,25.42
2023-01-07T23:48:08.209Z,23.75
2023-01-07T23:53:11.626Z,22.58
2023-01-07T23:58:16.886Z,22.83
